createdAt,value
2018-05-03T00:00:27.054Z,10.10
2018-05-03T00:02:55.466Z,9.93
2018-05-03T00:05:23.087Z,9.03
2018-05-03T00:07:52.179Z,8.60
2018-05-03T00:10:19.807Z,6.90
2018-05-03T00:12:47.407Z,6.20
2018-05-03T00:15:15.016Z,6.70
2018-05-03T00:17:42.615Z,6.73
2018-05-03T00:20:10.191Z,6.50
2018-05-03T00:22:37.802Z,6.63
2018-05-03T00:25:06.164Z,6.50
2018-05-03T00:27:34.562Z,7.03
2018-05-03T00:30:02.162Z,6.70
2018-05-03T00:32:29.776Z,6.50
2018-05-03T00:34:57.358Z,6.70
2018-05-03T00:37:25.694Z,5.77
2018-05-03T00:39:53.291Z,6.43
2018-05-03T00:42:20.929Z,6.00
2018-05-03T00:44:48.545Z,6.27
2018-05-03T00:47:16.876Z,6.03
2018-05-03T00:49:44.496Z,5.93
2018-05-03T00:52:12.911Z,5.70
2018-05-03T00:54:48.227Z,5.53
2018-05-03T00:57:15.832Z,5.80
2018-05-03T00:59:43.441Z,5.47
2018-05-03T01:02:11.765Z,5.03
2018-05-03T01:04:39.371Z,4.70
2018-05-03T01:07:06.943Z,4.83
2018-05-03T01:09:35.226Z,5.03
2018-05-03T01:12:03.603Z,4.60
2018-05-03T01:14:31.157Z,5.10
2018-05-03T01:16:58.726Z,5.27
2018-05-03T01:19:26.300Z,4.77
2018-05-03T01:21:54.667Z,4.83
2018-05-03T01:24:22.248Z,4.57
2018-05-03T01:26:49.822Z,4.83
2018-05-03T01:29:18.186Z,5.00
2018-05-03T01:31:45.786Z,5.17
2018-05-03T01:34:13.349Z,4.70
2018-05-03T01:36:40.917Z,5.00
2018-05-03T01:39:08.501Z,5.30
2018-05-03T01:41:36.089Z,4.80
2018-05-03T01:44:03.648Z,4.83
2018-05-03T01:46:32.839Z,5.03
2018-05-03T01:49:00.432Z,5.27
2018-05-03T01:51:28.010Z,4.63
2018-05-03T01:53:55.605Z,5.20
2018-05-03T01:56:23.948Z,4.90
2018-05-03T01:58:51.610Z,5.40
2018-05-03T02:01:19.192Z,5.20
2018-05-03T02:03:47.548Z,4.90
2018-05-03T02:06:15.124Z,4.97
2018-05-03T02:08:42.678Z,5.00
2018-05-03T02:11:10.244Z,4.33
2018-05-03T02:13:37.803Z,5.13
2018-05-03T02:16:05.403Z,4.73
2018-05-03T02:18:32.984Z,5.10
2018-05-03T02:21:00.592Z,4.87
2018-05-03T02:23:28.177Z,5.27
2018-05-03T02:25:55.745Z,4.70
2018-05-03T02:28:23.319Z,5.10
2018-05-03T02:30:50.905Z,5.07
2018-05-03T02:33:18.507Z,5.23
2018-05-03T02:35:46.058Z,4.93
2018-05-03T02:38:13.640Z,5.17
2018-05-03T02:40:41.197Z,5.17
2018-05-03T02:43:08.818Z,5.83
2018-05-03T02:45:36.408Z,5.60
2018-05-03T02:48:03.979Z,6.20
2018-05-03T02:50:31.600Z,6.00
2018-05-03T02:52:59.195Z,5.83
2018-05-03T02:55:26.761Z,6.83
2018-05-03T02:58:12.828Z,11.37
2018-05-03T03:00:57.991Z,10.83
2018-05-03T03:03:43.157Z,21.50
2018-05-03T03:06:28.448Z,18.20
2018-05-03T03:09:12.618Z,21.63
2018-05-03T03:11:57.736Z,27.33
2018-05-03T03:14:42.982Z,26.37
2018-05-03T03:17:28.214Z,28.07
2018-05-03T03:20:13.456Z,25.67
2018-05-03T03:22:59.427Z,26.93
2018-05-03T03:25:58.964Z,25.00
2018-05-03T03:28:44.107Z,21.27
2018-05-03T03:31:29.187Z,17.27
2018-05-03T03:34:11.571Z,14.03
2018-05-03T03:40:05.877Z,11.83
2018-05-03T03:45:48.733Z,10.77
2018-05-03T03:48:16.303Z,8.97
2018-05-03T03:50:43.878Z,9.40
2018-05-03T03:53:12.305Z,8.70
2018-05-03T03:55:39.875Z,9.23
2018-05-03T03:58:07.469Z,8.03
2018-05-03T04:00:35.076Z,7.47
2018-05-03T04:03:02.647Z,7.57
2018-05-03T04:05:30.236Z,8.03
2018-05-03T04:07:57.798Z,7.97
2018-05-03T04:10:25.476Z,7.67
2018-05-03T04:12:53.090Z,8.20
2018-05-03T04:15:21.421Z,7.33
2018-05-03T04:18:00.937Z,7.57
2018-05-03T04:20:46.152Z,7.53
2018-05-03T04:23:23.769Z,7.80
2018-05-03T04:26:03.867Z,7.63
2018-05-03T04:28:31.439Z,9.33
2018-05-03T04:30:59.055Z,12.97
2018-05-03T04:33:27.536Z,11.43
2018-05-03T04:35:55.888Z,15.33
2018-05-03T04:38:23.504Z,22.50
2018-05-03T04:40:51.067Z,21.87
2018-05-03T04:43:18.669Z,29.67
2018-05-03T04:45:46.254Z,30.53
2018-05-03T04:48:13.843Z,34.27
2018-05-03T04:50:41.419Z,31.93
2018-05-03T04:53:09.002Z,31.93
2018-05-03T04:55:36.610Z,31.00
2018-05-03T04:58:04.213Z,28.90
2018-05-03T05:00:31.797Z,23.67
2018-05-03T05:02:59.351Z,23.77
2018-05-03T05:05:26.956Z,21.40
2018-05-03T05:07:54.523Z,17.93
2018-05-03T05:10:22.088Z,14.07
2018-05-03T05:12:49.660Z,14.83
2018-05-03T05:15:17.235Z,13.43
2018-05-03T05:17:44.830Z,12.70
2018-05-03T05:20:13.192Z,13.87
2018-05-03T05:22:40.805Z,10.80
2018-05-03T05:25:08.384Z,11.63
2018-05-03T05:27:36.076Z,10.80
2018-05-03T05:30:03.712Z,10.57
2018-05-03T05:32:31.288Z,10.50
2018-05-03T05:34:58.884Z,9.50
2018-05-03T05:37:26.453Z,10.10
2018-05-03T05:39:54.064Z,9.53
2018-05-03T05:42:21.661Z,10.20
2018-05-03T05:44:49.222Z,11.13
2018-05-03T05:47:16.783Z,13.30
2018-05-03T05:49:44.431Z,12.93
2018-05-03T05:52:12.013Z,13.97
2018-05-03T05:54:39.746Z,13.23
2018-05-03T05:57:07.367Z,12.80
2018-05-03T05:59:34.950Z,13.40
2018-05-03T06:02:02.583Z,12.70
2018-05-03T06:04:30.200Z,12.80
2018-05-03T06:06:57.796Z,11.90
2018-05-03T06:09:25.381Z,12.63
2018-05-03T06:11:52.971Z,11.37
2018-05-03T06:14:20.554Z,9.30
2018-05-03T06:16:48.892Z,9.20
2018-05-03T06:19:16.463Z,9.20
2018-05-03T06:21:44.063Z,8.70
2018-05-03T06:24:11.682Z,7.50
2018-05-03T06:26:39.286Z,7.57
2018-05-03T06:29:06.867Z,7.53
2018-05-03T06:31:35.329Z,6.90
2018-05-03T06:34:03.661Z,7.20
2018-05-03T06:36:31.254Z,7.73
2018-05-03T06:38:58.992Z,6.57
2018-05-03T06:41:27.300Z,6.47
2018-05-03T06:43:54.904Z,6.33
2018-05-03T06:46:22.491Z,6.60
2018-05-03T06:48:50.123Z,5.40
2018-05-03T06:51:18.458Z,5.63
2018-05-03T06:53:46.034Z,5.50
2018-05-03T06:56:13.610Z,5.10
2018-05-03T06:58:41.285Z,4.90
2018-05-03T07:01:08.865Z,5.03
2018-05-03T07:03:36.449Z,4.57
2018-05-03T07:06:04.814Z,4.90
2018-05-03T07:08:32.403Z,4.90
2018-05-03T07:11:00.025Z,4.47
2018-05-03T07:13:27.599Z,4.07
2018-05-03T07:15:55.193Z,5.17
2018-05-03T07:18:23.533Z,4.80
2018-05-03T07:20:51.124Z,4.30
2018-05-03T07:23:18.973Z,4.63
2018-05-03T07:25:46.546Z,4.30
2018-05-03T07:28:14.146Z,4.17
2018-05-03T07:30:43.694Z,4.20
2018-05-03T07:33:11.294Z,3.77
2018-05-03T07:35:38.879Z,4.50
2018-05-03T07:38:07.306Z,3.97
2018-05-03T07:40:34.889Z,4.17
2018-05-03T07:43:02.470Z,3.80
2018-05-03T07:45:30.040Z,3.50
2018-05-03T07:47:57.618Z,4.20
2018-05-03T07:50:25.229Z,3.30
2018-05-03T07:52:53.103Z,3.30
2018-05-03T07:55:20.674Z,3.73
2018-05-03T07:57:48.342Z,3.27
2018-05-03T08:00:17.038Z,3.50
2018-05-03T08:02:46.092Z,2.90
2018-05-03T08:05:13.700Z,3.00
2018-05-03T08:07:41.269Z,3.30
2018-05-03T08:10:08.914Z,3.40
2018-05-03T08:12:36.505Z,3.20
2018-05-03T08:15:04.148Z,3.10
2018-05-03T08:17:31.788Z,2.97
2018-05-03T08:19:59.374Z,3.00
2018-05-03T08:22:26.998Z,2.70
2018-05-03T08:24:54.526Z,2.80
2018-05-03T08:27:22.112Z,2.80
2018-05-03T08:29:49.747Z,2.70
2018-05-03T08:32:17.340Z,2.37
2018-05-03T08:34:44.922Z,2.73
2018-05-03T08:37:13.358Z,2.63
2018-05-03T08:39:41.051Z,2.50
2018-05-03T08:42:08.644Z,2.50
2018-05-03T08:44:36.997Z,1.80
2018-05-03T08:47:04.548Z,1.90
2018-05-03T08:49:32.114Z,2.10
2018-05-03T08:51:59.676Z,1.80
2018-05-03T08:54:27.238Z,2.37
2018-05-03T08:56:54.827Z,2.10
2018-05-03T08:59:22.420Z,2.00
2018-05-03T09:01:50.844Z,2.37
2018-05-03T09:04:19.152Z,2.40
2018-05-03T09:06:46.782Z,2.63
2018-05-03T09:09:14.379Z,2.50
2018-05-03T09:11:41.996Z,2.30
2018-05-03T09:14:09.580Z,2.00
2018-05-03T09:16:37.168Z,2.30
2018-05-03T09:19:04.737Z,2.70
2018-05-03T09:21:32.452Z,2.53
2018-05-03T09:24:00.243Z,2.47
2018-05-03T09:26:27.829Z,2.20
2018-05-03T09:28:55.437Z,2.30
2018-05-03T09:31:23.020Z,2.33
2018-05-03T09:33:50.632Z,2.20
2018-05-03T09:36:18.213Z,2.30
2018-05-03T09:38:46.032Z,2.30
2018-05-03T09:41:13.668Z,2.10
2018-05-03T09:43:41.274Z,2.20
2018-05-03T09:46:08.841Z,2.10
2018-05-03T09:48:36.413Z,1.90
2018-05-03T09:51:04.750Z,1.63
2018-05-03T09:53:33.660Z,1.67
2018-05-03T09:56:01.241Z,1.80
2018-05-03T09:58:28.838Z,1.57
2018-05-03T10:00:56.448Z,1.83
2018-05-03T10:03:24.081Z,1.50
2018-05-03T10:05:51.656Z,1.70
2018-05-03T10:08:20.011Z,2.10
2018-05-03T10:10:47.605Z,2.30
2018-05-03T10:13:15.192Z,2.00
2018-05-03T10:15:42.781Z,2.10
2018-05-03T10:18:10.398Z,2.57
2018-05-03T10:20:37.993Z,2.30
2018-05-03T10:23:05.622Z,2.13
2018-05-03T10:25:33.220Z,2.20
2018-05-03T10:28:00.827Z,2.13
2018-05-03T10:30:28.474Z,2.20
2018-05-03T10:32:56.165Z,2.40
2018-05-03T10:35:23.817Z,1.63
2018-05-03T10:37:51.397Z,2.00
2018-05-03T10:40:18.983Z,2.20
2018-05-03T10:42:46.582Z,2.10
2018-05-03T10:45:14.178Z,1.87
2018-05-03T10:47:41.764Z,1.70
2018-05-03T10:50:09.359Z,1.70
2018-05-03T10:52:38.943Z,1.97
2018-05-03T10:55:06.554Z,1.90
2018-05-03T10:57:34.225Z,1.60
2018-05-03T11:00:01.734Z,1.87
2018-05-03T11:02:29.345Z,1.50
2018-05-03T11:04:56.936Z,1.70
2018-05-03T11:07:24.511Z,1.70
2018-05-03T11:09:52.102Z,1.90
2018-05-03T11:12:19.713Z,2.00
2018-05-03T11:14:47.320Z,1.70
2018-05-03T11:17:14.881Z,1.80
2018-05-03T11:19:42.482Z,1.60
2018-05-03T11:22:10.873Z,1.60
2018-05-03T11:24:39.222Z,1.70
2018-05-03T11:27:06.832Z,2.20
2018-05-03T11:29:34.450Z,2.10
2018-05-03T11:32:03.223Z,1.90
2018-05-03T11:34:31.557Z,2.53
2018-05-03T11:36:59.946Z,2.00
2018-05-03T11:39:28.299Z,1.90
2018-05-03T11:41:55.912Z,2.27
2018-05-03T11:44:24.631Z,2.17
2018-05-03T11:46:53.833Z,2.07
2018-05-03T11:49:21.419Z,1.87
2018-05-03T11:51:49.015Z,1.83
2018-05-03T11:54:17.375Z,1.83
2018-05-03T11:56:46.388Z,2.10
2018-05-03T11:59:14.824Z,1.90
2018-05-03T12:01:42.361Z,1.80
2018-05-03T12:04:09.961Z,1.90
2018-05-03T12:06:37.555Z,2.00
2018-05-03T12:09:06.101Z,2.30
2018-05-03T12:11:33.694Z,2.37
2018-05-03T12:14:01.287Z,2.20
2018-05-03T12:16:29.354Z,2.30
2018-05-03T12:18:57.750Z,2.53
2018-05-03T12:21:25.343Z,1.87
2018-05-03T12:23:52.944Z,2.10
2018-05-03T12:26:20.542Z,2.33
2018-05-03T12:28:48.967Z,2.30
2018-05-03T12:31:16.575Z,2.23
2018-05-03T12:33:44.956Z,2.20
2018-05-03T12:36:13.333Z,2.30
2018-05-03T12:38:40.934Z,2.37
2018-05-03T12:41:08.519Z,2.10
2018-05-03T12:43:36.145Z,2.37
2018-05-03T12:46:04.487Z,2.10
2018-05-03T12:48:32.057Z,2.33
2018-05-03T12:50:59.668Z,2.30
2018-05-03T12:53:27.281Z,2.00
2018-05-03T12:55:54.918Z,2.13
2018-05-03T12:58:22.529Z,2.40
2018-05-03T13:00:50.222Z,2.10
2018-05-03T13:03:18.635Z,2.30
2018-05-03T13:05:46.226Z,2.20
2018-05-03T13:08:13.800Z,2.20
2018-05-03T13:10:41.444Z,2.00
2018-05-03T13:13:09.155Z,2.20
2018-05-03T13:15:37.502Z,2.13
2018-05-03T13:18:05.087Z,2.07
2018-05-03T13:20:32.691Z,2.10
2018-05-03T13:23:01.062Z,2.30
2018-05-03T13:25:29.421Z,2.27
2018-05-03T13:27:57.027Z,2.13
2018-05-03T13:30:24.604Z,1.97
2018-05-03T13:32:52.219Z,1.80
2018-05-03T13:35:19.823Z,1.80
2018-05-03T13:37:48.904Z,1.90
2018-05-03T13:40:16.486Z,1.73
2018-05-03T13:42:44.102Z,2.07
2018-05-03T13:45:11.755Z,2.00
2018-05-03T13:47:39.382Z,2.10
2018-05-03T13:50:07.081Z,2.23
2018-05-03T13:52:34.683Z,2.10
2018-05-03T13:55:02.305Z,1.90
2018-05-03T13:57:29.887Z,2.13
2018-05-03T13:59:57.483Z,1.90
2018-05-03T14:02:25.461Z,1.80
2018-05-03T14:04:53.037Z,1.97
2018-05-03T14:07:21.465Z,2.10
2018-05-03T14:09:48.984Z,2.10
2018-05-03T14:12:17.333Z,1.93
2018-05-03T14:14:44.925Z,2.20
2018-05-03T14:17:13.254Z,2.00
2018-05-03T14:19:40.867Z,2.07
2018-05-03T14:22:09.221Z,2.10
2018-05-03T14:24:36.829Z,2.07
2018-05-03T14:27:05.250Z,1.90
2018-05-03T14:29:33.575Z,2.27
2018-05-03T14:32:01.945Z,2.00
2018-05-03T14:34:29.533Z,4.00
2018-05-03T14:36:57.099Z,2.53
2018-05-03T14:39:24.679Z,2.60
2018-05-03T14:41:52.257Z,1.90
2018-05-03T14:44:19.839Z,2.20
2018-05-03T14:46:48.291Z,2.50
2018-05-03T14:49:16.638Z,2.40
2018-05-03T14:51:44.305Z,1.93
2018-05-03T14:54:11.902Z,2.40
2018-05-03T14:56:40.243Z,1.97
2018-05-03T14:59:08.654Z,2.10
2018-05-03T15:01:36.289Z,2.30
2018-05-03T15:04:03.887Z,2.13
2018-05-03T15:06:31.485Z,1.97
2018-05-03T15:08:59.055Z,2.40
2018-05-03T15:11:26.622Z,2.10
2018-05-03T15:13:54.212Z,2.00
2018-05-03T15:16:22.259Z,2.17
2018-05-03T15:18:49.825Z,2.13
2018-05-03T15:21:17.384Z,2.40
2018-05-03T15:23:46.351Z,2.20
2018-05-03T15:26:14.693Z,1.97
2018-05-03T15:28:42.281Z,2.50
2018-05-03T15:31:10.643Z,2.50
2018-05-03T15:33:38.701Z,2.20
2018-05-03T15:36:06.377Z,2.20
2018-05-03T15:38:34.668Z,2.03
2018-05-03T15:41:02.276Z,2.30
2018-05-03T15:43:30.629Z,2.70
2018-05-03T15:45:58.220Z,2.20
2018-05-03T15:48:26.622Z,2.23
2018-05-03T15:50:54.205Z,2.20
2018-05-03T15:53:21.791Z,2.20
2018-05-03T15:55:49.405Z,2.13
2018-05-03T15:58:17.795Z,1.70
2018-05-03T16:00:45.406Z,2.43
2018-05-03T16:03:13.035Z,2.10
2018-05-03T16:05:40.726Z,2.33
2018-05-03T16:08:08.330Z,2.43
2018-05-03T16:10:36.683Z,2.63
2018-05-03T16:13:04.311Z,2.00
2018-05-03T16:15:31.897Z,2.50
2018-05-03T16:17:59.506Z,2.30
2018-05-03T16:20:27.212Z,2.40
2018-05-03T16:22:54.789Z,2.37
2018-05-03T16:25:22.385Z,2.23
2018-05-03T16:27:49.973Z,2.10
2018-05-03T16:30:17.548Z,2.23
2018-05-03T16:32:45.909Z,2.43
2018-05-03T16:35:14.282Z,2.50
2018-05-03T16:37:41.859Z,2.13
2018-05-03T16:40:09.483Z,1.90
2018-05-03T16:42:37.132Z,2.20
2018-05-03T16:45:04.722Z,2.23
2018-05-03T16:47:32.290Z,2.40
2018-05-03T16:49:59.854Z,2.60
2018-05-03T16:52:27.518Z,2.27
2018-05-03T16:54:55.805Z,1.70
2018-05-03T16:57:23.404Z,2.00
2018-05-03T16:59:51.788Z,1.83
2018-05-03T17:02:19.366Z,2.10
2018-05-03T17:04:46.981Z,1.90
2018-05-03T17:07:14.536Z,2.00
2018-05-03T17:09:42.181Z,2.00
2018-05-03T17:12:09.792Z,1.93
2018-05-03T17:14:37.350Z,2.73
2018-05-03T17:17:04.936Z,2.10
2018-05-03T17:19:32.669Z,2.20
2018-05-03T17:22:00.250Z,1.90
2018-05-03T17:24:27.810Z,1.80
2018-05-03T17:26:55.368Z,2.10
2018-05-03T17:29:22.928Z,2.23
2018-05-03T17:31:50.536Z,1.97
2018-05-03T17:34:18.098Z,2.00
2018-05-03T17:36:45.656Z,2.10
2018-05-03T17:39:13.256Z,1.97
2018-05-03T17:41:40.866Z,2.13
2018-05-03T17:44:08.457Z,1.90
2018-05-03T17:46:36.119Z,1.90
2018-05-03T17:49:03.686Z,1.90
2018-05-03T17:51:31.465Z,1.97
2018-05-03T17:53:59.185Z,1.97
2018-05-03T17:56:26.786Z,2.00
2018-05-03T17:58:54.333Z,1.90
2018-05-03T18:01:21.941Z,2.20
2018-05-03T18:03:50.280Z,1.93
2018-05-03T18:06:17.870Z,2.00
2018-05-03T18:08:46.272Z,1.70
2018-05-03T18:11:14.642Z,1.90
2018-05-03T18:13:42.243Z,2.00
2018-05-03T18:16:09.879Z,1.70
2018-05-03T18:18:37.400Z,2.00
2018-05-03T18:21:05.003Z,2.27
2018-05-03T18:23:32.583Z,1.80
2018-05-03T18:26:00.203Z,1.73
2018-05-03T18:28:27.757Z,2.50
2018-05-03T18:30:56.185Z,1.77
2018-05-03T18:33:23.764Z,1.93
2018-05-03T18:35:52.095Z,1.80
2018-05-03T18:38:19.668Z,2.20
2018-05-03T18:40:47.251Z,2.13
2018-05-03T18:43:14.844Z,2.07
2018-05-03T18:45:42.445Z,2.20
2018-05-03T18:48:10.047Z,1.90
2018-05-03T18:50:37.635Z,10.80
2018-05-03T18:53:05.957Z,5.33
2018-05-03T18:55:33.544Z,2.20
2018-05-03T18:58:01.124Z,2.40
2018-05-03T19:00:30.441Z,2.17
2018-05-03T19:02:58.775Z,2.10
2018-05-03T19:05:26.437Z,2.70
2018-05-03T19:07:54.011Z,2.10
2018-05-03T19:10:21.640Z,2.80
2018-05-03T19:12:49.208Z,1.90
2018-05-03T19:15:16.767Z,2.40
2018-05-03T19:17:44.337Z,2.13
2018-05-03T19:20:11.948Z,1.87
2018-05-03T19:22:39.533Z,1.87
2018-05-03T19:25:07.904Z,1.87
2018-05-03T19:27:35.550Z,2.90
2018-05-03T19:30:03.150Z,2.10
2018-05-03T19:32:30.728Z,2.90
2018-05-03T19:34:59.096Z,2.23
2018-05-03T19:37:28.127Z,1.70
2018-05-03T19:39:56.766Z,7.70
2018-05-03T19:42:24.359Z,20.03
2018-05-03T19:44:52.723Z,4.00
2018-05-03T19:47:20.329Z,2.90
2018-05-03T19:49:47.906Z,3.20
2018-05-03T19:52:15.553Z,3.67
2018-05-03T19:54:43.161Z,3.40
2018-05-03T19:57:10.722Z,2.90
2018-05-03T19:59:38.326Z,1.70
2018-05-03T20:02:05.891Z,2.67
2018-05-03T20:04:33.498Z,3.20
2018-05-03T20:07:01.102Z,3.00
2018-05-03T20:09:28.668Z,3.53
2018-05-03T20:11:56.264Z,2.63
2018-05-03T20:14:24.612Z,2.00
2018-05-03T20:16:52.223Z,1.57
2018-05-03T20:19:20.632Z,1.40
2018-05-03T20:21:48.236Z,1.60
2018-05-03T20:24:15.794Z,1.23
2018-05-03T20:26:43.359Z,1.80
2018-05-03T20:29:10.959Z,1.90
2018-05-03T20:31:39.307Z,1.57
2018-05-03T20:34:07.702Z,1.37
2018-05-03T20:36:35.319Z,1.23
2018-05-03T20:39:03.013Z,1.60
2018-05-03T20:41:30.582Z,1.43
2018-05-03T20:43:58.193Z,1.70
2018-05-03T20:46:26.599Z,1.77
2018-05-03T20:48:54.195Z,1.43
2018-05-03T20:51:21.815Z,1.60
2018-05-03T20:53:49.428Z,1.50
2018-05-03T20:56:17.037Z,1.60
2018-05-03T20:58:45.395Z,1.50
2018-05-03T21:01:13.008Z,1.40
2018-05-03T21:03:40.578Z,1.90
2018-05-03T21:06:08.168Z,2.00
2018-05-03T21:08:35.760Z,1.90
2018-05-03T21:11:03.342Z,1.80
2018-05-03T21:13:31.712Z,1.53
2018-05-03T21:16:00.062Z,1.73
2018-05-03T21:18:27.652Z,1.80
2018-05-03T21:20:55.230Z,1.70
2018-05-03T21:23:23.574Z,1.73
2018-05-03T21:25:51.143Z,1.60
2018-05-03T21:28:18.749Z,1.80
2018-05-03T21:30:47.285Z,1.50
2018-05-03T21:33:14.861Z,1.80
2018-05-03T21:35:43.329Z,1.80
2018-05-03T21:38:10.953Z,1.90
2018-05-03T21:40:39.287Z,1.90
2018-05-03T21:43:06.939Z,1.70
2018-05-03T21:45:34.585Z,1.60
2018-05-03T21:48:02.189Z,1.67
2018-05-03T21:50:29.785Z,1.80
2018-05-03T21:52:58.166Z,1.67
2018-05-03T21:55:25.732Z,1.90
2018-05-03T21:57:53.318Z,1.60
2018-05-03T22:00:20.890Z,1.93
2018-05-03T22:02:48.488Z,1.70
2018-05-03T22:05:16.063Z,2.30
2018-05-03T22:07:43.644Z,1.97
2018-05-03T22:10:11.220Z,1.90
2018-05-03T22:12:40.296Z,2.37
2018-05-03T22:15:07.876Z,2.00
2018-05-03T22:17:35.442Z,2.33
2018-05-03T22:20:03.019Z,2.53
2018-05-03T22:22:31.339Z,2.30
2018-05-03T22:24:58.919Z,2.40
2018-05-03T22:27:26.491Z,2.53
2018-05-03T22:29:54.053Z,2.20
2018-05-03T22:32:21.631Z,2.23
2018-05-03T22:34:49.214Z,2.23
2018-05-03T22:37:16.781Z,2.27
2018-05-03T22:39:44.372Z,2.53
2018-05-03T22:42:11.985Z,2.40
2018-05-03T22:44:39.627Z,2.77
2018-05-03T22:47:07.214Z,2.63
2018-05-03T22:49:34.786Z,2.63
2018-05-03T22:52:02.347Z,2.80
2018-05-03T22:54:31.884Z,2.57
2018-05-03T22:56:59.451Z,2.60
2018-05-03T22:59:27.026Z,2.60
2018-05-03T23:01:55.348Z,2.80
2018-05-03T23:04:22.920Z,2.73
2018-05-03T23:06:51.265Z,2.87
2018-05-03T23:09:19.587Z,2.70
2018-05-03T23:11:47.746Z,2.80
2018-05-03T23:14:15.347Z,2.57
2018-05-03T23:16:42.911Z,2.57
2018-05-03T23:19:10.469Z,2.73
2018-05-03T23:21:38.040Z,2.90
2018-05-03T23:24:05.631Z,2.90
2018-05-03T23:26:33.197Z,3.07
2018-05-03T23:29:02.834Z,3.37
2018-05-03T23:31:30.449Z,3.10
2018-05-03T23:33:58.010Z,3.40
2018-05-03T23:36:25.585Z,3.63
2018-05-03T23:38:53.142Z,3.57
2018-05-03T23:41:21.458Z,3.40
2018-05-03T23:43:49.786Z,3.40
2018-05-03T23:46:17.341Z,3.30
2018-05-03T23:48:44.892Z,3.40
2018-05-03T23:51:12.456Z,3.87
2018-05-03T23:53:40.035Z,3.83
2018-05-03T23:56:07.605Z,3.70
2018-05-03T23:58:35.145Z,4.07
